sensor_id;sensor_type;location;lat;lon;timestamp;pressure;altitude;pressure_sealevel;temperature;humidity
68628;BME280;55611;48.602;9.490;2023-05-24T00:02:02;97170;;;16.7;55
68628;BME280;55611;48.602;9.490;2023-05-24T00:04:33;97160;;;16.7;55
68628;BME280;55611;48.602;9.490;2023-05-24T00:07:04;97160;;;16.6;55
68628;BME280;55611;48.602;9.490;2023-05-24T00:09:35;97160;;;16.6;55
68628;BME280;55611;48.602;9.490;2023-05-24T00:12:05;97160;;;16.5;55
68628;BME280;55611;48.602;9.490;2023-05-24T00:14:36;97160;;;16.4;55
68628;BME280;55611;48.602;9.490;2023-05-24T00:17:07;97160;;;16.4;55
68628;BME280;55611;48.602;9.490;2023-05-24T00:19:38;97160;;;16.3;55
68628;BME280;55611;48.602;9.490;2023-05-24T00:22:08;97160;;;16.3;55
68628;BME280;55611;48.602;9.490;2023-05-24T00:24:39;97160;;;16.2;55
68628;BME280;55611;48.602;9.490;2023-05-24T00:27:10;97150;;;16.1;55
68628;BME280;55611;48.602;9.490;2023-05-24T00:32:12;97150;;;16.3;55
68628;BME280;55611;48.602;9.490;2023-05-24T00:34:42;97150;;;16.1;55
68628;BME280;55611;48.602;9.490;2023-05-24T00:37:13;97150;;;16.2;55
68628;BME280;55611;48.602;9.490;2023-05-24T00:39:44;97150;;;16.2;55
68628;BME280;55611;48.602;9.490;2023-05-24T00:42:15;97150;;;16.2;55
68628;BME280;55611;48.602;9.490;2023-05-24T00:44:45;97140;;;16.2;55
68628;BME280;55611;48.602;9.490;2023-05-24T00:47:16;97140;;;16.3;55
68628;BME280;55611;48.602;9.490;2023-05-24T00:49:47;97150;;;16.3;54.5
68628;BME280;55611;48.602;9.490;2023-05-24T00:52:18;97140;;;16.3;54.5
68628;BME280;55611;48.602;9.490;2023-05-24T00:54:49;97140;;;16.3;54.5
68628;BME280;55611;48.602;9.490;2023-05-24T00:57:19;97140;;;16.3;54.5
68628;BME280;55611;48.602;9.490;2023-05-24T00:59:50;97140;;;16.4;54.5
68628;BME280;55611;48.602;9.490;2023-05-24T01:02:21;97140;;;16.4;54.5
68628;BME280;55611;48.602;9.490;2023-05-24T01:04:52;97140;;;16.4;54.5
68628;BME280;55611;48.602;9.490;2023-05-24T01:07:26;97140;;;16.3;54.5
68628;BME280;55611;48.602;9.490;2023-05-24T01:09:58;97140;;;16.3;54.5
68628;BME280;55611;48.602;9.490;2023-05-24T01:12:26;97140;;;16.2;54.5
68628;BME280;55611;48.602;9.490;2023-05-24T01:15:28;97140;;;16.2;54.5
68628;BME280;55611;48.602;9.490;2023-05-24T01:17:45;97140;;;16.2;54.5
68628;BME280;55611;48.602;9.490;2023-05-24T01:19:57;97140;;;16.1;55
68628;BME280;55611;48.602;9.490;2023-05-24T01:22:37;97130;;;16.2;54.5
68628;BME280;55611;48.602;9.490;2023-05-24T01:25:02;97140;;;16.2;54.5
68628;BME280;55611;48.602;9.490;2023-05-24T01:27:29;97140;;;16.1;54.5
68628;BME280;55611;48.602;9.490;2023-05-24T01:29:59;97130;;;16.1;54.5
68628;BME280;55611;48.602;9.490;2023-05-24T01:32:30;97130;;;16.1;54.5
68628;BME280;55611;48.602;9.490;2023-05-24T01:35:01;97130;;;16.1;54.5
68628;BME280;55611;48.602;9.490;2023-05-24T01:37:32;97130;;;16.1;54.5
68628;BME280;55611;48.602;9.490;2023-05-24T01:40:03;97130;;;16;55
68628;BME280;55611;48.602;9.490;2023-05-24T01:42:35;97130;;;15.9;55
68628;BME280;55611;48.602;9.490;2023-05-24T01:45:05;97120;;;16;55
68628;BME280;55611;48.602;9.490;2023-05-24T01:47:41;97120;;;16.1;54.5
68628;BME280;55611;48.602;9.490;2023-05-24T01:50:07;97120;;;16;54.5
68628;BME280;55611;48.602;9.490;2023-05-24T01:52:36;97120;;;16;54.5
68628;BME280;55611;48.602;9.490;2023-05-24T01:55:07;97130;;;16;54.5
68628;BME280;55611;48.602;9.490;2023-05-24T01:57:38;97130;;;16;54.5
68628;BME280;55611;48.602;9.490;2023-05-24T02:00:09;97130;;;16;54.5
68628;BME280;55611;48.602;9.490;2023-05-24T02:02:40;97140;;;16;54.5
68628;BME280;55611;48.602;9.490;2023-05-24T02:05:10;97140;;;16;54.5
68628;BME280;55611;48.602;9.490;2023-05-24T02:07:41;97140;;;16;54.5
68628;BME280;55611;48.602;9.490;2023-05-24T02:10:12;97140;;;15.9;54.5
68628;BME280;55611;48.602;9.490;2023-05-24T02:12:43;97150;;;15.8;54.5
68628;BME280;55611;48.602;9.490;2023-05-24T02:15:13;97140;;;15.8;54.5
68628;BME280;55611;48.602;9.490;2023-05-24T02:17:44;97140;;;15.8;54.5
68628;BME280;55611;48.602;9.490;2023-05-24T02:20:15;97150;;;15.7;54.5
68628;BME280;55611;48.602;9.490;2023-05-24T02:22:46;97140;;;15.7;54.5
68628;BME280;55611;48.602;9.490;2023-05-24T02:25:16;97140;;;15.7;54.5
68628;BME280;55611;48.602;9.490;2023-05-24T02:27:47;97140;;;15.6;54.5
68628;BME280;55611;48.602;9.490;2023-05-24T02:30:18;97140;;;15.5;54.5
68628;BME280;55611;48.602;9.490;2023-05-24T02:32:49;97140;;;15.6;54.5
68628;BME280;55611;48.602;9.490;2023-05-24T02:35:20;97140;;;15.5;54.5
68628;BME280;55611;48.602;9.490;2023-05-24T02:37:50;97140;;;15.4;54.5
68628;BME280;55611;48.602;9.490;2023-05-24T02:40:21;97150;;;15.4;55
68628;BME280;55611;48.602;9.490;2023-05-24T02:42:52;97140;;;15.4;55
68628;BME280;55611;48.602;9.490;2023-05-24T02:45:23;97140;;;15.4;55
68628;BME280;55611;48.602;9.490;2023-05-24T02:47:53;97150;;;15.3;55
68628;BME280;55611;48.602;9.490;2023-05-24T02:50:24;97140;;;15.3;55
68628;BME280;55611;48.602;9.490;2023-05-24T02:52:55;97140;;;15.4;55
68628;BME280;55611;48.602;9.490;2023-05-24T02:55:26;97140;;;15.3;55
68628;BME280;55611;48.602;9.490;2023-05-24T02:57:56;97140;;;15.2;55
68628;BME280;55611;48.602;9.490;2023-05-24T03:00:27;97140;;;15.3;55
68628;BME280;55611;48.602;9.490;2023-05-24T03:02:58;97140;;;15.2;55
68628;BME280;55611;48.602;9.490;2023-05-24T03:05:29;97140;;;15.2;55
68628;BME280;55611;48.602;9.490;2023-05-24T03:08:00;97140;;;15.2;55
68628;BME280;55611;48.602;9.490;2023-05-24T03:10:30;97140;;;15.3;55
68628;BME280;55611;48.602;9.490;2023-05-24T03:13:01;97150;;;15.3;54.5
68628;BME280;55611;48.602;9.490;2023-05-24T03:15:32;97140;;;15.2;55
68628;BME280;55611;48.602;9.490;2023-05-24T03:18:03;97150;;;15.2;55
68628;BME280;55611;48.602;9.490;2023-05-24T03:20:33;97150;;;15.1;55
68628;BME280;55611;48.602;9.490;2023-05-24T03:23:04;97150;;;15.1;55
68628;BME280;55611;48.602;9.490;2023-05-24T03:25:35;97150;;;15;55
68628;BME280;55611;48.602;9.490;2023-05-24T03:28:06;97150;;;15;55
68628;BME280;55611;48.602;9.490;2023-05-24T03:30:37;97150;;;15;55
68628;BME280;55611;48.602;9.490;2023-05-24T03:33:07;97150;;;14.9;55
68628;BME280;55611;48.602;9.490;2023-05-24T03:35:38;97150;;;14.8;55
68628;BME280;55611;48.602;9.490;2023-05-24T03:38:09;97150;;;14.8;55
68628;BME280;55611;48.602;9.490;2023-05-24T03:40:40;97150;;;14.9;55
68628;BME280;55611;48.602;9.490;2023-05-24T03:43:10;97150;;;14.9;55
68628;BME280;55611;48.602;9.490;2023-05-24T03:45:41;97140;;;14.8;55
68628;BME280;55611;48.602;9.490;2023-05-24T03:48:12;97150;;;14.8;55
68628;BME280;55611;48.602;9.490;2023-05-24T03:50:43;97150;;;14.8;55
68628;BME280;55611;48.602;9.490;2023-05-24T03:53:14;97150;;;14.8;55
68628;BME280;55611;48.602;9.490;2023-05-24T03:55:44;97150;;;14.7;55
68628;BME280;55611;48.602;9.490;2023-05-24T03:58:15;97150;;;14.8;55
68628;BME280;55611;48.602;9.490;2023-05-24T04:00:46;97160;;;14.7;55
68628;BME280;55611;48.602;9.490;2023-05-24T04:03:17;97160;;;14.7;55
68628;BME280;55611;48.602;9.490;2023-05-24T04:05:47;97150;;;14.6;55
68628;BME280;55611;48.602;9.490;2023-05-24T04:08:18;97160;;;14.6;55
68628;BME280;55611;48.602;9.490;2023-05-24T04:10:49;97160;;;14.7;55
68628;BME280;55611;48.602;9.490;2023-05-24T04:13:20;97160;;;14.8;55
68628;BME280;55611;48.602;9.490;2023-05-24T04:15:50;97170;;;14.9;55
68628;BME280;55611;48.602;9.490;2023-05-24T04:18:21;97170;;;14.9;55
68628;BME280;55611;48.602;9.490;2023-05-24T04:20:52;97170;;;14.9;55
68628;BME280;55611;48.602;9.490;2023-05-24T04:23:23;97170;;;14.9;55
68628;BME280;55611;48.602;9.490;2023-05-24T04:25:54;97160;;;15;55
68628;BME280;55611;48.602;9.490;2023-05-24T04:28:24;97160;;;15;54.5
68628;BME280;55611;48.602;9.490;2023-05-24T04:30:55;97160;;;15.1;54.5
68628;BME280;55611;48.602;9.490;2023-05-24T04:33:26;97150;;;15.1;54.5
68628;BME280;55611;48.602;9.490;2023-05-24T04:35:57;97160;;;15.2;54.5
68628;BME280;55611;48.602;9.490;2023-05-24T04:38:27;97160;;;15.2;54.5
68628;BME280;55611;48.602;9.490;2023-05-24T04:40:58;97160;;;15.1;54.5
68628;BME280;55611;48.602;9.490;2023-05-24T04:43:29;97150;;;15.1;55
68628;BME280;55611;48.602;9.490;2023-05-24T04:46:00;97150;;;15.1;55
68628;BME280;55611;48.602;9.490;2023-05-24T04:48:31;97150;;;15.1;55
68628;BME280;55611;48.602;9.490;2023-05-24T04:51:01;97150;;;15.1;54.5
68628;BME280;55611;48.602;9.490;2023-05-24T04:53:32;97150;;;15.1;55
68628;BME280;55611;48.602;9.490;2023-05-24T04:58:34;97150;;;15.1;55
68628;BME280;55611;48.602;9.490;2023-05-24T05:01:04;97150;;;15.2;55
68628;BME280;55611;48.602;9.490;2023-05-24T05:03:35;97150;;;15.1;55
68628;BME280;55611;48.602;9.490;2023-05-24T05:06:06;97150;;;15.1;55
68628;BME280;55611;48.602;9.490;2023-05-24T05:08:37;97160;;;15.1;55
68628;BME280;55611;48.602;9.490;2023-05-24T05:11:08;97160;;;15.1;55
68628;BME280;55611;48.602;9.490;2023-05-24T05:13:38;97160;;;15.1;55
68628;BME280;55611;48.602;9.490;2023-05-24T05:16:09;97170;;;15.1;55
68628;BME280;55611;48.602;9.490;2023-05-24T05:18:40;97170;;;14.9;55
68628;BME280;55611;48.602;9.490;2023-05-24T05:21:11;97180;;;14.9;55
68628;BME280;55611;48.602;9.490;2023-05-24T05:23:41;97170;;;14.8;55.5
68628;BME280;55611;48.602;9.490;2023-05-24T05:26:12;97170;;;14.8;55
68628;BME280;55611;48.602;9.490;2023-05-24T05:28:43;97170;;;14.8;55
68628;BME280;55611;48.602;9.490;2023-05-24T05:31:14;97160;;;14.7;55.5
68628;BME280;55611;48.602;9.490;2023-05-24T05:33:44;97170;;;14.8;55
68628;BME280;55611;48.602;9.490;2023-05-24T05:36:15;97170;;;15;55
68628;BME280;55611;48.602;9.490;2023-05-24T05:38:46;97180;;;15.1;55
68628;BME280;55611;48.602;9.490;2023-05-24T05:41:17;97170;;;14.9;55
68628;BME280;55611;48.602;9.490;2023-05-24T05:43:48;97170;;;14.9;55
68628;BME280;55611;48.602;9.490;2023-05-24T05:46:18;97170;;;14.7;55
68628;BME280;55611;48.602;9.490;2023-05-24T05:48:49;97180;;;14.7;55
68628;BME280;55611;48.602;9.490;2023-05-24T05:51:20;97170;;;14.7;55
68628;BME280;55611;48.602;9.490;2023-05-24T05:53:51;97170;;;14.7;55
68628;BME280;55611;48.602;9.490;2023-05-24T05:58:52;97180;;;14.7;55
68628;BME280;55611;48.602;9.490;2023-05-24T06:01:23;97180;;;14.7;55
68628;BME280;55611;48.602;9.490;2023-05-24T06:03:54;97180;;;14.7;55
68628;BME280;55611;48.602;9.490;2023-05-24T06:08:55;97180;;;14.6;55
68628;BME280;55611;48.602;9.490;2023-05-24T06:11:26;97180;;;14.6;55
68628;BME280;55611;48.602;9.490;2023-05-24T06:13:57;97180;;;14.7;55
68628;BME280;55611;48.602;9.490;2023-05-24T06:16:28;97180;;;14.7;55
68628;BME280;55611;48.602;9.490;2023-05-24T06:18:58;97180;;;14.7;55
68628;BME280;55611;48.602;9.490;2023-05-24T06:21:29;97180;;;14.8;55
68628;BME280;55611;48.602;9.490;2023-05-24T06:24:00;97180;;;14.9;55
68628;BME280;55611;48.602;9.490;2023-05-24T06:26:31;97180;;;14.9;55
68628;BME280;55611;48.602;9.490;2023-05-24T06:29:02;97180;;;15;55
68628;BME280;55611;48.602;9.490;2023-05-24T06:31:32;97180;;;15;55
68628;BME280;55611;48.602;9.490;2023-05-24T06:34:03;97180;;;15;55
68628;BME280;55611;48.602;9.490;2023-05-24T06:36:34;97180;;;15.2;55
68628;BME280;55611;48.602;9.490;2023-05-24T06:39:05;97180;;;15.4;55
68628;BME280;55611;48.602;9.490;2023-05-24T06:41:35;97180;;;15.4;55
68628;BME280;55611;48.602;9.490;2023-05-24T06:44:06;97180;;;15.4;55
68628;BME280;55611;48.602;9.490;2023-05-24T06:46:37;97180;;;15.4;55
68628;BME280;55611;48.602;9.490;2023-05-24T06:49:08;97180;;;15.4;55
68628;BME280;55611;48.602;9.490;2023-05-24T06:51:39;97190;;;15.4;55
68628;BME280;55611;48.602;9.490;2023-05-24T06:54:09;97190;;;15.4;55
68628;BME280;55611;48.602;9.490;2023-05-24T06:56:40;97190;;;15.5;55
68628;BME280;55611;48.602;9.490;2023-05-24T06:59:11;97190;;;15.4;55
68628;BME280;55611;48.602;9.490;2023-05-24T07:01:42;97190;;;15.4;55
68628;BME280;55611;48.602;9.490;2023-05-24T07:04:12;97190;;;15.4;55
68628;BME280;55611;48.602;9.490;2023-05-24T07:06:43;97190;;;15.6;55
68628;BME280;55611;48.602;9.490;2023-05-24T07:09:14;97190;;;15.7;55
68628;BME280;55611;48.602;9.490;2023-05-24T07:11:45;97190;;;15.7;55
68628;BME280;55611;48.602;9.490;2023-05-24T07:14:15;97200;;;15.8;55
68628;BME280;55611;48.602;9.490;2023-05-24T07:16:46;97200;;;15.9;55
68628;BME280;55611;48.602;9.490;2023-05-24T07:19:17;97200;;;15.7;55
68628;BME280;55611;48.602;9.490;2023-05-24T07:21:48;97210;;;15.7;55
68628;BME280;55611;48.602;9.490;2023-05-24T07:24:19;97210;;;15.7;55
68628;BME280;55611;48.602;9.490;2023-05-24T07:26:50;97210;;;15.7;55
68628;BME280;55611;48.602;9.490;2023-05-24T07:29:20;97210;;;15.7;55
68628;BME280;55611;48.602;9.490;2023-05-24T07:31:51;97210;;;15.6;55
68628;BME280;55611;48.602;9.490;2023-05-24T07:34:22;97220;;;15.7;55
68628;BME280;55611;48.602;9.490;2023-05-24T07:36:52;97230;;;15.6;55
68628;BME280;55611;48.602;9.490;2023-05-24T07:39:24;97230;;;15.7;55
68628;BME280;55611;48.602;9.490;2023-05-24T07:41:54;97230;;;15.7;55
68628;BME280;55611;48.602;9.490;2023-05-24T07:44:25;97230;;;15.9;55
68628;BME280;55611;48.602;9.490;2023-05-24T07:46:56;97230;;;15.9;55
68628;BME280;55611;48.602;9.490;2023-05-24T07:49:27;97230;;;15.8;55
68628;BME280;55611;48.602;9.490;2023-05-24T07:51:57;97230;;;15.8;55
68628;BME280;55611;48.602;9.490;2023-05-24T07:54:28;97240;;;15.7;55
68628;BME280;55611;48.602;9.490;2023-05-24T07:56:59;97240;;;15.6;55
68628;BME280;55611;48.602;9.490;2023-05-24T07:59:29;97240;;;15.6;55
68628;BME280;55611;48.602;9.490;2023-05-24T08:02:00;97240;;;15.6;55
68628;BME280;55611;48.602;9.490;2023-05-24T08:07:02;97250;;;15.7;55
68628;BME280;55611;48.602;9.490;2023-05-24T08:09:33;97250;;;15.6;55
68628;BME280;55611;48.602;9.490;2023-05-24T08:12:04;97240;;;15.6;55
68628;BME280;55611;48.602;9.490;2023-05-24T08:14:34;97250;;;15.5;55
68628;BME280;55611;48.602;9.490;2023-05-24T08:17:05;97260;;;15.4;55
68628;BME280;55611;48.602;9.490;2023-05-24T08:19:36;97260;;;15.4;55
68628;BME280;55611;48.602;9.490;2023-05-24T08:22:06;97250;;;15.3;55
68628;BME280;55611;48.602;9.490;2023-05-24T08:24:37;97260;;;15.3;55
68628;BME280;55611;48.602;9.490;2023-05-24T08:27:08;97260;;;15.2;55
68628;BME280;55611;48.602;9.490;2023-05-24T08:29:39;97260;;;15.1;55
68628;BME280;55611;48.602;9.490;2023-05-24T08:32:09;97260;;;15.2;55
68628;BME280;55611;48.602;9.490;2023-05-24T08:34:40;97260;;;15.2;55
68628;BME280;55611;48.602;9.490;2023-05-24T08:37:11;97270;;;15.2;55
68628;BME280;55611;48.602;9.490;2023-05-24T08:39:42;97260;;;15.3;55
68628;BME280;55611;48.602;9.490;2023-05-24T08:42:13;97270;;;15.3;55
68628;BME280;55611;48.602;9.490;2023-05-24T08:44:46;97260;;;15.2;55
68628;BME280;55611;48.602;9.490;2023-05-24T08:47:14;97260;;;15.4;55
68628;BME280;55611;48.602;9.490;2023-05-24T08:49:45;97270;;;15.5;55
68628;BME280;55611;48.602;9.490;2023-05-24T08:52:16;97270;;;15.6;55
68628;BME280;55611;48.602;9.490;2023-05-24T08:54:47;97260;;;15.7;55
68628;BME280;55611;48.602;9.490;2023-05-24T08:57:17;97270;;;15.8;55
68628;BME280;55611;48.602;9.490;2023-05-24T08:59:48;97260;;;15.9;55
68628;BME280;55611;48.602;9.490;2023-05-24T09:02:19;97260;;;15.9;55
68628;BME280;55611;48.602;9.490;2023-05-24T09:04:51;97260;;;16.1;55
68628;BME280;55611;48.602;9.490;2023-05-24T09:07:21;97260;;;16.1;55
68628;BME280;55611;48.602;9.490;2023-05-24T09:09:52;97270;;;16.2;55
68628;BME280;55611;48.602;9.490;2023-05-24T09:12:22;97260;;;16.2;55
68628;BME280;55611;48.602;9.490;2023-05-24T09:14:53;97260;;;16.2;55
68628;BME280;55611;48.602;9.490;2023-05-24T09:17:23;97260;;;16.2;55
68628;BME280;55611;48.602;9.490;2023-05-24T09:19:54;97260;;;16.1;55
68628;BME280;55611;48.602;9.490;2023-05-24T09:22:26;97270;;;16.2;55
68628;BME280;55611;48.602;9.490;2023-05-24T09:24:57;97270;;;16.4;55
68628;BME280;55611;48.602;9.490;2023-05-24T09:27:27;97270;;;16.5;54.5
68628;BME280;55611;48.602;9.490;2023-05-24T09:29:57;97260;;;16.6;55
68628;BME280;55611;48.602;9.490;2023-05-24T09:32:28;97260;;;16.7;54.5
68628;BME280;55611;48.602;9.490;2023-05-24T09:34:59;97260;;;16.7;54.5
68628;BME280;55611;48.602;9.490;2023-05-24T09:37:30;97260;;;16.6;55
68628;BME280;55611;48.602;9.490;2023-05-24T09:40:00;97270;;;16.5;55
68628;BME280;55611;48.602;9.490;2023-05-24T09:42:31;97270;;;16.6;55
68628;BME280;55611;48.602;9.490;2023-05-24T09:45:03;97270;;;16.5;55
68628;BME280;55611;48.602;9.490;2023-05-24T09:47:33;97260;;;16.5;55
68628;BME280;55611;48.602;9.490;2023-05-24T09:50:04;97260;;;16.5;55
68628;BME280;55611;48.602;9.490;2023-05-24T09:52:35;97250;;;16.6;55
68628;BME280;55611;48.602;9.490;2023-05-24T09:55:20;97250;;;16.6;55
68628;BME280;55611;48.602;9.490;2023-05-24T09:57:36;97260;;;16.7;55
68628;BME280;55611;48.602;9.490;2023-05-24T10:00:07;97260;;;16.8;55
68628;BME280;55611;48.602;9.490;2023-05-24T10:02:37;97250;;;16.7;55
68628;BME280;55611;48.602;9.490;2023-05-24T10:07:39;97250;;;16.7;54.5
68628;BME280;55611;48.602;9.490;2023-05-24T10:10:10;97250;;;16.6;54.5
68628;BME280;55611;48.602;9.490;2023-05-24T10:12:40;97250;;;16.5;54.5
68628;BME280;55611;48.602;9.490;2023-05-24T10:15:11;97260;;;16.5;54.5
68628;BME280;55611;48.602;9.490;2023-05-24T10:17:42;97260;;;16.4;54.5
68628;BME280;55611;48.602;9.490;2023-05-24T10:20:13;97260;;;16.4;54.5
68628;BME280;55611;48.602;9.490;2023-05-24T10:22:45;97270;;;16.5;54.5
68628;BME280;55611;48.602;9.490;2023-05-24T10:25:22;97270;;;16.4;54.5
68628;BME280;55611;48.602;9.490;2023-05-24T10:27:45;97270;;;16.4;54.5
68628;BME280;55611;48.602;9.490;2023-05-24T10:30:20;97270;;;16.5;54.5
68628;BME280;55611;48.602;9.490;2023-05-24T10:32:47;97270;;;16.5;54.5
68628;BME280;55611;48.602;9.490;2023-05-24T10:35:17;97270;;;16.3;54.5
68628;BME280;55611;48.602;9.490;2023-05-24T10:37:48;97270;;;16.2;54.5
68628;BME280;55611;48.602;9.490;2023-05-24T10:40:20;97270;;;16;54.5
68628;BME280;55611;48.602;9.490;2023-05-24T10:42:50;97270;;;16;54.5
68628;BME280;55611;48.602;9.490;2023-05-24T10:45:29;97270;;;16.1;54.5
68628;BME280;55611;48.602;9.490;2023-05-24T10:47:51;97260;;;16;54.5
68628;BME280;55611;48.602;9.490;2023-05-24T10:50:22;97260;;;16;54.5
68628;BME280;55611;48.602;9.490;2023-05-24T10:53:09;97260;;;15.9;55
68628;BME280;55611;48.602;9.490;2023-05-24T10:55:24;97260;;;15.9;55
68628;BME280;55611;48.602;9.490;2023-05-24T10:57:54;97260;;;15.9;54.5
68628;BME280;55611;48.602;9.490;2023-05-24T11:00:25;97260;;;15.9;54.5
68628;BME280;55611;48.602;9.490;2023-05-24T11:03:00;97260;;;16;54.5
68628;BME280;55611;48.602;9.490;2023-05-24T11:05:34;97270;;;16;54.5
68628;BME280;55611;48.602;9.490;2023-05-24T11:07:58;97270;;;15.8;54.5
68628;BME280;55611;48.602;9.490;2023-05-24T11:10:29;97270;;;15.9;54.5
68628;BME280;55611;48.602;9.490;2023-05-24T11:13:00;97260;;;15.8;54.5
68628;BME280;55611;48.602;9.490;2023-05-24T11:15:30;97260;;;15.8;54.5
68628;BME280;55611;48.602;9.490;2023-05-24T11:18:12;97260;;;15.8;54.5
68628;BME280;55611;48.602;9.490;2023-05-24T11:20:32;97260;;;15.8;54.5
68628;BME280;55611;48.602;9.490;2023-05-24T11:23:02;97260;;;15.9;54.5
68628;BME280;55611;48.602;9.490;2023-05-24T11:25:33;97260;;;16;54.5
68628;BME280;55611;48.602;9.490;2023-05-24T11:28:05;97260;;;16;54.5
68628;BME280;55611;48.602;9.490;2023-05-24T11:30:42;97250;;;15.8;54.5
68628;BME280;55611;48.602;9.490;2023-05-24T11:33:13;97250;;;15.8;54.5
68628;BME280;55611;48.602;9.490;2023-05-24T11:35:36;97250;;;15.8;54.5
68628;BME280;55611;48.602;9.490;2023-05-24T11:38:08;97250;;;15.8;54.5
68628;BME280;55611;48.602;9.490;2023-05-24T11:40:38;97250;;;15.9;54.5
68628;BME280;55611;48.602;9.490;2023-05-24T11:43:12;97250;;;16;54.5
68628;BME280;55611;48.602;9.490;2023-05-24T11:45:40;97250;;;16;54.5
68628;BME280;55611;48.602;9.490;2023-05-24T11:48:10;97250;;;15.9;54.5
68628;BME280;55611;48.602;9.490;2023-05-24T11:50:43;97250;;;15.9;54.5
68628;BME280;55611;48.602;9.490;2023-05-24T11:53:12;97240;;;16;54.5
68628;BME280;55611;48.602;9.490;2023-05-24T11:55:42;97250;;;16;54.5
68628;BME280;55611;48.602;9.490;2023-05-24T11:58:17;97240;;;16;54.5
68628;BME280;55611;48.602;9.490;2023-05-24T12:00:45;97250;;;16;54.5
68628;BME280;55611;48.602;9.490;2023-05-24T12:03:15;97250;;;16.4;54.5
68628;BME280;55611;48.602;9.490;2023-05-24T12:05:45;97240;;;16.5;54.5
68628;BME280;55611;48.602;9.490;2023-05-24T12:08:16;97240;;;16.6;54.5
68628;BME280;55611;48.602;9.490;2023-05-24T12:10:47;97240;;;16.8;54.5
68628;BME280;55611;48.602;9.490;2023-05-24T12:13:19;97240;;;16.9;54.5
68628;BME280;55611;48.602;9.490;2023-05-24T12:15:49;97240;;;16.9;54.5
68628;BME280;55611;48.602;9.490;2023-05-24T12:18:20;97240;;;16.9;54.5
68628;BME280;55611;48.602;9.490;2023-05-24T12:20:50;97240;;;17;54.5
68628;BME280;55611;48.602;9.490;2023-05-24T12:23:22;97240;;;17.1;54.5
68628;BME280;55611;48.602;9.490;2023-05-24T12:25:59;97240;;;17;54.5
68628;BME280;55611;48.602;9.490;2023-05-24T12:28:22;97240;;;16.8;54.5
68628;BME280;55611;48.602;9.490;2023-05-24T12:30:53;97240;;;16.7;54.5
68628;BME280;55611;48.602;9.490;2023-05-24T12:33:26;97240;;;16.7;54.5
68628;BME280;55611;48.602;9.490;2023-05-24T12:35:55;97240;;;16.8;54.5
68628;BME280;55611;48.602;9.490;2023-05-24T12:38:26;97240;;;16.9;54.5
68628;BME280;55611;48.602;9.490;2023-05-24T12:40:56;97240;;;16.9;54.5
68628;BME280;55611;48.602;9.490;2023-05-24T12:43:27;97240;;;16.8;54.5
68628;BME280;55611;48.602;9.490;2023-05-24T12:45:58;97240;;;16.8;54.5
68628;BME280;55611;48.602;9.490;2023-05-24T12:48:29;97240;;;16.8;54.5
68628;BME280;55611;48.602;9.490;2023-05-24T12:50:59;97240;;;16.7;54.5
68628;BME280;55611;48.602;9.490;2023-05-24T12:53:30;97240;;;16.7;54.5
68628;BME280;55611;48.602;9.490;2023-05-24T12:56:01;97240;;;16.7;54.5
68628;BME280;55611;48.602;9.490;2023-05-24T12:58:32;97240;;;16.6;54.5
68628;BME280;55611;48.602;9.490;2023-05-24T13:01:02;97240;;;16.7;54.5
68628;BME280;55611;48.602;9.490;2023-05-24T13:03:33;97240;;;16.8;54.5
68628;BME280;55611;48.602;9.490;2023-05-24T13:06:04;97240;;;17;54.5
68628;BME280;55611;48.602;9.490;2023-05-24T13:08:35;97240;;;17.2;54.5
68628;BME280;55611;48.602;9.490;2023-05-24T13:11:05;97240;;;17.2;54.5
68628;BME280;55611;48.602;9.490;2023-05-24T13:13:36;97230;;;17.2;54.5
68628;BME280;55611;48.602;9.490;2023-05-24T13:16:07;97230;;;17.4;54.5
68628;BME280;55611;48.602;9.490;2023-05-24T13:18:38;97220;;;17.8;54.5
68628;BME280;55611;48.602;9.490;2023-05-24T13:21:09;97220;;;18;54
68628;BME280;55611;48.602;9.490;2023-05-24T13:23:39;97210;;;18.2;54
68628;BME280;55611;48.602;9.490;2023-05-24T13:26:10;97210;;;18.4;54
68628;BME280;55611;48.602;9.490;2023-05-24T13:28:41;97210;;;18.5;53.5
68628;BME280;55611;48.602;9.490;2023-05-24T13:31:12;97210;;;18.6;53.5
68628;BME280;55611;48.602;9.490;2023-05-24T13:33:42;97200;;;18.7;53.5
68628;BME280;55611;48.602;9.490;2023-05-24T13:36:13;97200;;;18.5;53.5
68628;BME280;55611;48.602;9.490;2023-05-24T13:38:44;97190;;;18.3;53.5
68628;BME280;55611;48.602;9.490;2023-05-24T13:41:15;97190;;;18.4;53.5
68628;BME280;55611;48.602;9.490;2023-05-24T13:43:45;97190;;;18.4;53.5
68628;BME280;55611;48.602;9.490;2023-05-24T13:46:16;97190;;;18.4;53.5
68628;BME280;55611;48.602;9.490;2023-05-24T13:48:47;97190;;;18.3;53.5
68628;BME280;55611;48.602;9.490;2023-05-24T13:51:18;97190;;;18.5;54
68628;BME280;55611;48.602;9.490;2023-05-24T13:53:49;97190;;;18.6;54
68628;BME280;55611;48.602;9.490;2023-05-24T13:56:19;97190;;;18.7;54
68628;BME280;55611;48.602;9.490;2023-05-24T13:58:50;97190;;;18.7;54
68628;BME280;55611;48.602;9.490;2023-05-24T14:01:21;97190;;;18.5;54
68628;BME280;55611;48.602;9.490;2023-05-24T14:03:52;97190;;;18.5;53.5
68628;BME280;55611;48.602;9.490;2023-05-24T14:06:22;97180;;;18.4;53.5
68628;BME280;55611;48.602;9.490;2023-05-24T14:08:53;97180;;;18.4;53.5
68628;BME280;55611;48.602;9.490;2023-05-24T14:11:24;97180;;;18.3;53.5
68628;BME280;55611;48.602;9.490;2023-05-24T14:13:55;97190;;;18.2;53.5
68628;BME280;55611;48.602;9.490;2023-05-24T14:16:26;97180;;;18.1;53.5
68628;BME280;55611;48.602;9.490;2023-05-24T14:18:56;97170;;;18.1;53.5
68628;BME280;55611;48.602;9.490;2023-05-24T14:21:27;97180;;;18.2;53.5
68628;BME280;55611;48.602;9.490;2023-05-24T14:23:58;97180;;;18.1;53.5
68628;BME280;55611;48.602;9.490;2023-05-24T14:26:29;97170;;;18.2;53.5
68628;BME280;55611;48.602;9.490;2023-05-24T14:29:00;97170;;;18.2;53.5
68628;BME280;55611;48.602;9.490;2023-05-24T14:31:30;97170;;;18.3;53.5
68628;BME280;55611;48.602;9.490;2023-05-24T14:34:01;97170;;;18.4;53.5
68628;BME280;55611;48.602;9.490;2023-05-24T14:36:32;97170;;;18.4;53.5
68628;BME280;55611;48.602;9.490;2023-05-24T14:39:03;97170;;;18.3;53.5
68628;BME280;55611;48.602;9.490;2023-05-24T14:41:33;97170;;;18.2;53.5
68628;BME280;55611;48.602;9.490;2023-05-24T14:44:04;97170;;;18.2;53.5
68628;BME280;55611;48.602;9.490;2023-05-24T14:46:35;97170;;;18.2;53.5